Port Washington, Ohio
Current Conditions -  °F | °C
As of 1:53 PM on Sunday 23 Nov 2014 (Local Time) from KPHD Reporting Station
Broken Clouds Broken Clouds  
Wind Chill: 64°   Ceiling: 3600
Heat Index: 64°   Visibility: 10mi
Dew Point: 43°   Wind: 10mph
Humidity: 46%   Direction: 130°SE
Pressure: 29.89"   Gusts: NA
Location:  40.33°N, 81.52°W
Report Text: KPHD 231853Z AUTO 13009KT 10SM BKN036 18/06 A2989 RMK AO2 SLP120 T01780061
Loading
Personal Weather Stations






























Interactive Weather Map New forecast layout! Learn more

10-Day Weather Forecast

Advertisements
Track Severe Weather on mobile